PWSweather.com
Personal Weather Stations
Station Observations
IONTARIO88
Lincoln, ON L0R

Lincoln, ON L0R

Lat: 43.1763563, Lon: -79.4719525

Elevation: 297

Station Type: Davis Vantage Pro 2 Plus

http://www.beamsvillewx.ca

High Low Average
Temperature 60.3°F15.7°C 47.8°F8.8°C 52.4°F11.3°C
Dew Point 51.6°F10.9°C 39.8°F4.3°C 46.3°F7.9°C
Winds 10.0 mph 16.1 kmh 4.0 mph 6.4 kmh 7.0 mph SSW11.3 kmh SSW
Wind Gusts 24.0 mph38.6 kmh 9.0 mph14.5 kmh 17.0 mph27.4 kmh
Humidity 92% 68% 80%
Pressure 30.01 in1016.3 mb 29.77 in1008.1 mb -
Precipitation 0.34 in8.6 mm - -
Hour Temp Dew Point Humidity Winds Wind Gusts Pressure Precip Precip Rate Daily Precip Total
12:00 AM 47.8°F8.8°C 40.0°F4.4°C 74% 8.0 mph SSW12.9 kmh SSW 19.0 mph30.6 kmh 29.98 in1015.2 mb 0.00 in0.0 mm 0.00 in0.0 mm 0.00 in0.0 mm
12:15 AM 48.0°F8.9°C 39.8°F4.3°C 73% 6.0 mph SSW9.7 kmh SSW 15.0 mph24.1 kmh 29.99 in1015.6 mb 0.00 in0.0 mm 0.00 in0.0 mm 0.00 in0.0 mm
12:30 AM 48.4°F9.1°C 40.1°F4.5°C 73% 7.0 mph SSW11.3 kmh SSW 18.0 mph29.0 kmh 29.99 in1015.6 mb 0.00 in0.0 mm 0.00 in0.0 mm 0.00 in0.0 mm
12:45 AM 48.4°F9.1°C 40.1°F4.5°C 73% 6.0 mph SW9.7 kmh SW 13.0 mph20.9 kmh 29.98 in1015.2 mb 0.00 in0.0 mm 0.00 in0.0 mm 0.00 in0.0 mm
01:00 AM 48.6°F9.2°C 39.9°F4.4°C 72% 7.0 mph SW11.3 kmh SW 16.0 mph25.7 kmh 29.98 in1015.2 mb 0.00 in0.0 mm 0.00 in0.0 mm 0.00 in0.0 mm
01:15 AM 48.4°F9.1°C 39.8°F4.3°C 72% 7.0 mph SW11.3 kmh SW 14.0 mph22.5 kmh 29.98 in1015.2 mb 0.00 in0.0 mm 0.00 in0.0 mm 0.00 in0.0 mm
01:30 AM 48.2°F9.0°C 39.9°F4.4°C 73% 7.0 mph SSW11.3 kmh SSW 16.0 mph25.7 kmh 29.98 in1015.2 mb 0.00 in0.0 mm 0.00 in0.0 mm 0.00 in0.0 mm
01:45 AM 48.7°F9.3°C 40.5°F4.7°C 73% 8.0 mph SSW12.9 kmh SSW 22.0 mph35.4 kmh 29.98 in1015.2 mb 0.00 in0.0 mm 0.00 in0.0 mm 0.00 in0.0 mm
02:00 AM 48.7°F9.3°C 40.5°F4.7°C 73% 7.0 mph SSW11.3 kmh SSW 17.0 mph27.4 kmh 29.98 in1015.2 mb 0.00 in0.0 mm 0.00 in0.0 mm 0.00 in0.0 mm
02:15 AM 48.7°F9.3°C 40.5°F4.7°C 73% 7.0 mph SSW11.3 kmh SSW 14.0 mph22.5 kmh 29.98 in1015.2 mb 0.00 in0.0 mm 0.00 in0.0 mm 0.00 in0.0 mm
02:30 AM 48.9°F9.4°C 40.6°F4.8°C 73% 7.0 mph SSW11.3 kmh SSW 21.0 mph33.8 kmh 29.98 in1015.2 mb 0.00 in0.0 mm 0.00 in0.0 mm 0.00 in0.0 mm
02:45 AM 49.3°F9.6°C 41.0°F5.0°C 73% 8.0 mph SSW12.9 kmh SSW 16.0 mph25.7 kmh 29.99 in1015.6 mb 0.00 in0.0 mm 0.00 in0.0 mm 0.00 in0.0 mm
03:00 AM 49.3°F9.6°C 41.3°F5.2°C 74% 8.0 mph SSW12.9 kmh SSW 16.0 mph25.7 kmh 29.99 in1015.6 mb 0.00 in0.0 mm 0.00 in0.0 mm 0.00 in0.0 mm
03:15 AM 48.9°F9.4°C 41.0°F5.0°C 74% 7.0 mph SSW11.3 kmh SSW 16.0 mph25.7 kmh 29.99 in1015.6 mb 0.00 in0.0 mm 0.00 in0.0 mm 0.00 in0.0 mm
03:30 AM 48.9°F9.4°C 41.0°F5.0°C 74% 7.0 mph SSW11.3 kmh SSW 17.0 mph27.4 kmh 30.00 in1015.9 mb 0.00 in0.0 mm 0.00 in0.0 mm 0.00 in0.0 mm
03:45 AM 48.9°F9.4°C 41.3°F5.2°C 75% 8.0 mph SSW12.9 kmh SSW 22.0 mph35.4 kmh 29.98 in1015.2 mb 0.00 in0.0 mm 0.00 in0.0 mm 0.00 in0.0 mm
04:00 AM 49.1°F9.5°C 41.2°F5.1°C 74% 8.0 mph SSW12.9 kmh SSW 16.0 mph25.7 kmh 29.98 in1015.2 mb 0.00 in0.0 mm 0.00 in0.0 mm 0.00 in0.0 mm
04:15 AM 48.9°F9.4°C 41.3°F5.2°C 75% 8.0 mph SSW12.9 kmh SSW 18.0 mph29.0 kmh 29.99 in1015.6 mb 0.00 in0.0 mm 0.00 in0.0 mm 0.00 in0.0 mm
04:30 AM 48.9°F9.4°C 41.3°F5.2°C 75% 8.0 mph SSW12.9 kmh SSW 17.0 mph27.4 kmh 30.00 in1015.9 mb 0.00 in0.0 mm 0.00 in0.0 mm 0.00 in0.0 mm
04:45 AM 48.9°F9.4°C 41.3°F5.2°C 75% 9.0 mph SSW14.5 kmh SSW 19.0 mph30.6 kmh 29.99 in1015.6 mb 0.00 in0.0 mm 0.00 in0.0 mm 0.00 in0.0 mm
05:00 AM 48.6°F9.2°C 41.3°F5.2°C 76% 7.0 mph SSW11.3 kmh SSW 17.0 mph27.4 kmh 29.99 in1015.6 mb 0.00 in0.0 mm 0.00 in0.0 mm 0.00 in0.0 mm
05:15 AM 49.1°F9.5°C 41.9°F5.5°C 76% 8.0 mph SSW12.9 kmh SSW 21.0 mph33.8 kmh 29.98 in1015.2 mb 0.00 in0.0 mm 0.00 in0.0 mm 0.00 in0.0 mm
05:30 AM 49.3°F9.6°C 42.0°F5.6°C 76% 7.0 mph SSW11.3 kmh SSW 18.0 mph29.0 kmh 29.98 in1015.2 mb 0.00 in0.0 mm 0.00 in0.0 mm 0.00 in0.0 mm
05:45 AM 49.6°F9.8°C 42.4°F5.8°C 76% 7.0 mph SSW11.3 kmh SSW 16.0 mph25.7 kmh 29.99 in1015.6 mb 0.00 in0.0 mm 0.00 in0.0 mm 0.00 in0.0 mm
06:00 AM 50.0°F10.0°C 42.7°F5.9°C 76% 6.0 mph SSW9.7 kmh SSW 13.0 mph20.9 kmh 30.00 in1015.9 mb 0.00 in0.0 mm 0.00 in0.0 mm 0.00 in0.0 mm
06:15 AM 50.2°F10.1°C 42.9°F6.1°C 76% 7.0 mph SSW11.3 kmh SSW 16.0 mph25.7 kmh 29.99 in1015.6 mb 0.00 in0.0 mm 0.00 in0.0 mm 0.00 in0.0 mm
06:30 AM 50.2°F10.1°C 43.6°F6.4°C 78% 7.0 mph SSW11.3 kmh SSW 16.0 mph25.7 kmh 30.00 in1015.9 mb 0.00 in0.0 mm 0.00 in0.0 mm 0.00 in0.0 mm
06:45 AM 49.8°F9.9°C 43.6°F6.4°C 79% 7.0 mph SSW11.3 kmh SSW 18.0 mph29.0 kmh 29.99 in1015.6 mb 0.00 in0.0 mm 0.00 in0.0 mm 0.00 in0.0 mm
07:00 AM 49.5°F9.7°C 43.2°F6.2°C 79% 7.0 mph SSW11.3 kmh SSW 15.0 mph24.1 kmh 29.99 in1015.6 mb 0.00 in0.0 mm 0.00 in0.0 mm 0.00 in0.0 mm
07:15 AM 49.5°F9.7°C 43.5°F6.4°C 80% 8.0 mph SSW12.9 kmh SSW 22.0 mph35.4 kmh 29.99 in1015.6 mb 0.00 in0.0 mm 0.00 in0.0 mm 0.00 in0.0 mm
07:30 AM 49.8°F9.9°C 44.2°F6.8°C 81% 8.0 mph SSW12.9 kmh SSW 20.0 mph32.2 kmh 29.99 in1015.6 mb 0.00 in0.0 mm 0.00 in0.0 mm 0.00 in0.0 mm
07:45 AM 50.0°F10.0°C 44.4°F6.9°C 81% 6.0 mph SSW9.7 kmh SSW 13.0 mph20.9 kmh 30.00 in1015.9 mb 0.00 in0.0 mm 0.00 in0.0 mm 0.00 in0.0 mm
08:00 AM 50.5°F10.3°C 45.2°F7.3°C 82% 6.0 mph SW9.7 kmh SW 17.0 mph27.4 kmh 30.00 in1015.9 mb 0.00 in0.0 mm 0.00 in0.0 mm 0.00 in0.0 mm
08:15 AM 51.1°F10.6°C 46.1°F7.8°C 83% 8.0 mph SSW12.9 kmh SSW 18.0 mph29.0 kmh 30.00 in1015.9 mb 0.00 in0.0 mm 0.00 in0.0 mm 0.00 in0.0 mm
08:30 AM 51.1°F10.6°C 46.1°F7.8°C 83% 6.0 mph SSW9.7 kmh SSW 15.0 mph24.1 kmh 30.00 in1015.9 mb 0.00 in0.0 mm 0.00 in0.0 mm 0.00 in0.0 mm
08:45 AM 51.8°F11.0°C 46.2°F7.9°C 81% 7.0 mph SSW11.3 kmh SSW 16.0 mph25.7 kmh 30.00 in1015.9 mb 0.00 in0.0 mm 0.00 in0.0 mm 0.00 in0.0 mm
09:00 AM 52.0°F11.1°C 45.7°F7.6°C 79% 8.0 mph SSW12.9 kmh SSW 18.0 mph29.0 kmh 30.01 in1016.3 mb 0.00 in0.0 mm 0.00 in0.0 mm 0.00 in0.0 mm
09:15 AM 52.2°F11.2°C 45.5°F7.5°C 78% 9.0 mph SSW14.5 kmh SSW 20.0 mph32.2 kmh 30.01 in1016.3 mb 0.00 in0.0 mm 0.00 in0.0 mm 0.00 in0.0 mm
09:30 AM 52.0°F11.1°C 45.0°F7.2°C 77% 6.0 mph SSW9.7 kmh SSW 12.0 mph19.3 kmh 30.01 in1016.3 mb 0.00 in0.0 mm 0.00 in0.0 mm 0.00 in0.0 mm
09:45 AM 52.0°F11.1°C 45.0°F7.2°C 77% 8.0 mph SSW12.9 kmh SSW 17.0 mph27.4 kmh 30.01 in1016.3 mb 0.00 in0.0 mm 0.00 in0.0 mm 0.00 in0.0 mm
10:00 AM 52.2°F11.2°C 45.2°F7.3°C 77% 8.0 mph SSW12.9 kmh SSW 20.0 mph32.2 kmh 30.01 in1016.3 mb 0.00 in0.0 mm 0.00 in0.0 mm 0.00 in0.0 mm
10:15 AM 52.2°F11.2°C 45.2°F7.3°C 77% 8.0 mph SSW12.9 kmh SSW 17.0 mph27.4 kmh 30.01 in1016.3 mb 0.00 in0.0 mm 0.00 in0.0 mm 0.00 in0.0 mm
10:30 AM 52.5°F11.4°C 45.5°F7.5°C 77% 7.0 mph SSW11.3 kmh SSW 16.0 mph25.7 kmh 30.01 in1016.3 mb 0.00 in0.0 mm 0.00 in0.0 mm 0.00 in0.0 mm
10:45 AM 53.1°F11.7°C 45.7°F7.6°C 76% 6.0 mph SSW9.7 kmh SSW 13.0 mph20.9 kmh 30.01 in1016.3 mb 0.00 in0.0 mm 0.00 in0.0 mm 0.00 in0.0 mm
11:00 AM 53.4°F11.9°C 45.7°F7.6°C 75% 8.0 mph SSW12.9 kmh SSW 18.0 mph29.0 kmh 30.00 in1015.9 mb 0.00 in0.0 mm 0.00 in0.0 mm 0.00 in0.0 mm
11:15 AM 53.6°F12.0°C 45.9°F7.7°C 75% 8.0 mph SSW12.9 kmh SSW 18.0 mph29.0 kmh 29.99 in1015.6 mb 0.00 in0.0 mm 0.00 in0.0 mm 0.00 in0.0 mm
11:30 AM 54.0°F12.2°C 46.2°F7.9°C 75% 7.0 mph S11.3 kmh S 18.0 mph29.0 kmh 29.99 in1015.6 mb 0.00 in0.0 mm 0.00 in0.0 mm 0.00 in0.0 mm
11:45 AM 55.0°F12.8°C 46.9°F8.3°C 74% 7.0 mph SSW11.3 kmh SSW 18.0 mph29.0 kmh 29.98 in1015.2 mb 0.00 in0.0 mm 0.00 in0.0 mm 0.00 in0.0 mm
12:00 PM 55.8°F13.2°C 47.2°F8.4°C 73% 7.0 mph SSW11.3 kmh SSW 16.0 mph25.7 kmh 29.98 in1015.2 mb 0.00 in0.0 mm 0.00 in0.0 mm 0.00 in0.0 mm
12:15 PM 56.5°F13.6°C 47.6°F8.7°C 72% 6.0 mph SSW9.7 kmh SSW 15.0 mph24.1 kmh 29.97 in1014.9 mb 0.00 in0.0 mm 0.00 in0.0 mm 0.00 in0.0 mm
12:30 PM 57.0°F13.9°C 47.7°F8.7°C 71% 6.0 mph SW9.7 kmh SW 17.0 mph27.4 kmh 29.96 in1014.6 mb 0.00 in0.0 mm 0.00 in0.0 mm 0.00 in0.0 mm
12:45 PM 57.4°F14.1°C 48.1°F8.9°C 71% 8.0 mph SSW12.9 kmh SSW 20.0 mph32.2 kmh 29.94 in1013.9 mb 0.00 in0.0 mm 0.00 in0.0 mm 0.00 in0.0 mm
01:00 PM 57.4°F14.1°C 48.4°F9.1°C 72% 8.0 mph S12.9 kmh S 19.0 mph30.6 kmh 29.94 in1013.9 mb 0.00 in0.0 mm 0.00 in0.0 mm 0.00 in0.0 mm
01:15 PM 58.1°F14.5°C 48.7°F9.3°C 71% 9.0 mph SSW14.5 kmh SSW 20.0 mph32.2 kmh 29.93 in1013.5 mb 0.00 in0.0 mm 0.00 in0.0 mm 0.00 in0.0 mm
01:30 PM 58.6°F14.8°C 48.9°F9.4°C 70% 8.0 mph SSW12.9 kmh SSW 19.0 mph30.6 kmh 29.92 in1013.2 mb 0.00 in0.0 mm 0.00 in0.0 mm 0.00 in0.0 mm
01:45 PM 59.4°F15.2°C 49.6°F9.8°C 70% 7.0 mph SSW11.3 kmh SSW 17.0 mph27.4 kmh 29.91 in1012.9 mb 0.00 in0.0 mm 0.00 in0.0 mm 0.00 in0.0 mm
02:00 PM 60.3°F15.7°C 49.7°F9.8°C 68% 9.0 mph SSW14.5 kmh SSW 19.0 mph30.6 kmh 29.91 in1012.9 mb 0.00 in0.0 mm 0.00 in0.0 mm 0.00 in0.0 mm
02:15 PM 60.3°F15.7°C 49.7°F9.8°C 68% 8.0 mph SSW12.9 kmh SSW 20.0 mph32.2 kmh 29.90 in1012.5 mb 0.00 in0.0 mm 0.00 in0.0 mm 0.00 in0.0 mm
02:30 PM 60.1°F15.6°C 49.5°F9.7°C 68% 8.0 mph SSW12.9 kmh SSW 19.0 mph30.6 kmh 29.90 in1012.5 mb 0.00 in0.0 mm 0.00 in0.0 mm 0.00 in0.0 mm
02:45 PM 59.4°F15.2°C 49.2°F9.6°C 69% 8.0 mph SSW12.9 kmh SSW 16.0 mph25.7 kmh 29.90 in1012.5 mb 0.00 in0.0 mm 0.00 in0.0 mm 0.00 in0.0 mm
03:00 PM 58.5°F14.7°C 48.7°F9.3°C 70% 7.0 mph SSW11.3 kmh SSW 19.0 mph30.6 kmh 29.89 in1012.2 mb 0.00 in0.0 mm 0.00 in0.0 mm 0.00 in0.0 mm
03:15 PM 58.3°F14.6°C 48.9°F9.4°C 71% 8.0 mph SSW12.9 kmh SSW 17.0 mph27.4 kmh 29.89 in1012.2 mb 0.00 in0.0 mm 0.00 in0.0 mm 0.00 in0.0 mm
03:30 PM 58.1°F14.5°C 49.1°F9.5°C 72% 6.0 mph SSW9.7 kmh SSW 16.0 mph25.7 kmh 29.89 in1012.2 mb 0.00 in0.0 mm 0.00 in0.0 mm 0.00 in0.0 mm
03:45 PM 57.0°F13.9°C 50.6°F10.3°C 79% 8.0 mph SSW12.9 kmh SSW 23.0 mph37.0 kmh 29.89 in1012.2 mb 0.00 in0.0 mm 0.00 in0.0 mm 0.00 in0.0 mm
04:00 PM 55.2°F12.9°C 51.1°F10.6°C 86% 9.0 mph SW14.5 kmh SW 20.0 mph32.2 kmh 29.89 in1012.2 mb 0.01 in0.3 mm 0.01 in0.3 mm 0.01 in0.3 mm
04:15 PM 54.3°F12.4°C 51.1°F10.6°C 89% 8.0 mph SW12.9 kmh SW 18.0 mph29.0 kmh 29.90 in1012.5 mb 0.02 in0.5 mm 0.04 in1.0 mm 0.02 in0.5 mm
04:30 PM 54.1°F12.3°C 51.6°F10.9°C 91% 10.0 mph SW16.1 kmh SW 21.0 mph33.8 kmh 29.90 in1012.5 mb 0.05 in1.3 mm 0.12 in3.0 mm 0.05 in1.3 mm
04:45 PM 54.1°F12.3°C 51.6°F10.9°C 91% 8.0 mph SSW12.9 kmh SSW 18.0 mph29.0 kmh 29.89 in1012.2 mb 0.09 in2.3 mm 0.16 in4.1 mm 0.09 in2.3 mm
05:00 PM 54.0°F12.2°C 51.4°F10.8°C 91% 9.0 mph S14.5 kmh S 20.0 mph32.2 kmh 29.89 in1012.2 mb 0.11 in2.8 mm 0.03 in0.8 mm 0.13 in3.3 mm
05:15 PM 53.4°F11.9°C 50.9°F10.5°C 91% 8.0 mph SSW12.9 kmh SSW 16.0 mph25.7 kmh 29.88 in1011.9 mb 0.11 in2.8 mm 0.00 in0.0 mm 0.13 in3.3 mm
05:30 PM 53.2°F11.8°C 50.7°F10.4°C 91% 6.0 mph S9.7 kmh S 15.0 mph24.1 kmh 29.87 in1011.5 mb 0.10 in2.5 mm 0.00 in0.0 mm 0.15 in3.8 mm
05:45 PM 53.1°F11.7°C 50.5°F10.3°C 91% 8.0 mph S12.9 kmh S 15.0 mph24.1 kmh 29.87 in1011.5 mb 0.06 in1.5 mm 0.00 in0.0 mm 0.15 in3.8 mm
06:00 PM 52.9°F11.6°C 50.3°F10.2°C 91% 7.0 mph S11.3 kmh S 15.0 mph24.1 kmh 29.87 in1011.5 mb 0.06 in1.5 mm 0.00 in0.0 mm 0.19 in4.8 mm
06:15 PM 52.5°F11.4°C 50.3°F10.2°C 92% 7.0 mph S11.3 kmh S 14.0 mph22.5 kmh 29.86 in1011.2 mb 0.09 in2.3 mm 0.12 in3.0 mm 0.23 in5.8 mm
06:30 PM 52.3°F11.3°C 50.1°F10.1°C 92% 7.0 mph S11.3 kmh S 14.0 mph22.5 kmh 29.85 in1010.8 mb 0.11 in2.8 mm 0.08 in2.0 mm 0.26 in6.6 mm
06:45 PM 52.2°F11.2°C 49.9°F9.9°C 92% 6.0 mph S9.7 kmh S 15.0 mph24.1 kmh 29.85 in1010.8 mb 0.12 in3.0 mm 0.04 in1.0 mm 0.27 in6.9 mm
07:00 PM 52.3°F11.3°C 50.1°F10.1°C 92% 5.0 mph S8.0 kmh S 11.0 mph17.7 kmh 29.85 in1010.8 mb 0.08 in2.0 mm 0.00 in0.0 mm 0.27 in6.9 mm
07:15 PM 52.3°F11.3°C 50.1°F10.1°C 92% 6.0 mph S9.7 kmh S 19.0 mph30.6 kmh 29.85 in1010.8 mb 0.06 in1.5 mm 0.00 in0.0 mm 0.29 in7.4 mm
07:30 PM 52.0°F11.1°C 49.7°F9.8°C 92% 5.0 mph SSW8.0 kmh SSW 14.0 mph22.5 kmh 29.84 in1010.5 mb 0.03 in0.8 mm 0.00 in0.0 mm 0.29 in7.4 mm
07:45 PM 51.8°F11.0°C 49.5°F9.7°C 92% 4.0 mph SSW6.4 kmh SSW 9.0 mph14.5 kmh 29.84 in1010.5 mb 0.03 in0.8 mm 0.00 in0.0 mm 0.30 in7.6 mm
08:00 PM 51.6°F10.9°C 49.4°F9.7°C 92% 6.0 mph S9.7 kmh S 17.0 mph27.4 kmh 29.83 in1010.2 mb 0.04 in1.0 mm 0.01 in0.3 mm 0.31 in7.9 mm
08:15 PM 51.6°F10.9°C 49.4°F9.7°C 92% 7.0 mph S11.3 kmh S 17.0 mph27.4 kmh 29.82 in1009.8 mb 0.02 in0.5 mm 0.00 in0.0 mm 0.31 in7.9 mm
08:30 PM 52.2°F11.2°C 49.9°F9.9°C 92% 7.0 mph SSW11.3 kmh SSW 16.0 mph25.7 kmh 29.82 in1009.8 mb 0.02 in0.5 mm 0.00 in0.0 mm 0.31 in7.9 mm
08:45 PM 52.9°F11.6°C 50.3°F10.2°C 91% 8.0 mph SSW12.9 kmh SSW 17.0 mph27.4 kmh 29.81 in1009.5 mb 0.01 in0.3 mm 0.00 in0.0 mm 0.31 in7.9 mm
09:00 PM 52.9°F11.6°C 50.3°F10.2°C 91% 7.0 mph SSW11.3 kmh SSW 16.0 mph25.7 kmh 29.81 in1009.5 mb 0.01 in0.3 mm 0.00 in0.0 mm 0.31 in7.9 mm
09:15 PM 52.9°F11.6°C 50.3°F10.2°C 91% 6.0 mph SSW9.7 kmh SSW 15.0 mph24.1 kmh 29.81 in1009.5 mb 0.01 in0.3 mm 0.00 in0.0 mm 0.31 in7.9 mm
09:30 PM 52.5°F11.4°C 50.3°F10.2°C 92% 8.0 mph SSW12.9 kmh SSW 20.0 mph32.2 kmh 29.80 in1009.1 mb 0.02 in0.5 mm 0.04 in1.0 mm 0.32 in8.1 mm
09:45 PM 52.3°F11.3°C 49.8°F9.9°C 91% 7.0 mph SW11.3 kmh SW 17.0 mph27.4 kmh 29.80 in1009.1 mb 0.02 in0.5 mm 0.00 in0.0 mm 0.32 in8.1 mm
10:00 PM 52.2°F11.2°C 49.6°F9.8°C 91% 8.0 mph SSW12.9 kmh SSW 19.0 mph30.6 kmh 29.79 in1008.8 mb 0.01 in0.3 mm 0.00 in0.0 mm 0.32 in8.1 mm
10:15 PM 52.3°F11.3°C 49.8°F9.9°C 91% 8.0 mph SSW12.9 kmh SSW 21.0 mph33.8 kmh 29.79 in1008.8 mb 0.01 in0.3 mm 0.00 in0.0 mm 0.32 in8.1 mm
10:30 PM 52.5°F11.4°C 50.0°F10.0°C 91% 9.0 mph SSW14.5 kmh SSW 22.0 mph35.4 kmh 29.79 in1008.8 mb 0.00 in0.0 mm 0.00 in0.0 mm 0.32 in8.1 mm
10:45 PM 52.3°F11.3°C 49.8°F9.9°C 91% 10.0 mph S16.1 kmh S 24.0 mph38.6 kmh 29.79 in1008.8 mb 0.00 in0.0 mm 0.00 in0.0 mm 0.32 in8.1 mm
11:00 PM 52.3°F11.3°C 49.8°F9.9°C 91% 9.0 mph SSW14.5 kmh SSW 21.0 mph33.8 kmh 29.78 in1008.5 mb 0.00 in0.0 mm 0.00 in0.0 mm 0.32 in8.1 mm
11:15 PM 52.2°F11.2°C 49.9°F9.9°C 92% 8.0 mph SSW12.9 kmh SSW 20.0 mph32.2 kmh 29.78 in1008.5 mb 0.01 in0.3 mm 0.04 in1.0 mm 0.33 in8.4 mm
11:30 PM 52.0°F11.1°C 49.7°F9.8°C 92% 7.0 mph SSW11.3 kmh SSW 17.0 mph27.4 kmh 29.78 in1008.5 mb 0.01 in0.3 mm 0.00 in0.0 mm 0.33 in8.4 mm
11:45 PM 52.0°F11.1°C 49.7°F9.8°C 92% 8.0 mph SSW12.9 kmh SSW 23.0 mph37.0 kmh 29.77 in1008.1 mb 0.02 in0.5 mm 0.04 in1.0 mm 0.34 in8.6 mm